Sisters Island, AK

5:30 PM AKDT on July 28, 2015 (GMT -0800)
South Lena Point | | Change Station
CLOSE
Current Station
Personal Weather Station
Location: Juneau, AK
Elevation: 120 ft
Nearby Weather Stations

Elev 120 ft 58.39 °N, 134.77 °W | Updated 6 seconds ago

Mostly Cloudy
Mostly Cloudy
57.9 °F
Feels Like 57.9 °F
N
2.0
Wind Variable Wind from SE
Gusts 2.0 mph

Today
High -- | Low -- °F
--% Chance of Precip.
Yesterday
High -- | Low -- °F
Precip. -- in
4:44 AM 9:27 PM
Waxing Gibbous, 92% visible
Pressure 30.01 in
Visibility 10.0 miles
Clouds Few 3900 ft
Scattered Clouds 5000 ft
Mostly Cloudy 6000 ft
Dew Point 54 °F
Humidity 86%
Rainfall 0.14 in
Snow Depth Not available.
UV 2 out of 12
Pollen Not available.
Air Quality Not available.
Flu Activity Not available.
METAR PAOH 290056Z AUTO 00000KT 10SM FEW039 SCT050 BKN060 16/14 A3001 RMK AO2 TSNO T01550144 RAE12 P0000 SLP163 $

More Conditions Fewer Conditions

Pressure 30.01 in
Visibility 10.0 miles
Clouds Few 3900 ft
Scattered Clouds 5000 ft
Mostly Cloudy 6000 ft
Dew Point 54 °F
Humidity 86%
Rainfall 0.14 in
Snow Depth Not available.
UV 2 out of 12
Pollen Not available.
Air Quality Not available.
Flu Activity Not available.
METAR PAOH 290056Z AUTO 00000KT 10SM FEW039 SCT050 BKN060 16/14 A3001 RMK AO2 TSNO T01550144 RAE12 P0000 SLP163 $

More Conditions Fewer Conditions

10-Day Weather Forecast

×

Almanac

Astronomy

Jul. 28, 2015 Rise Set
Actual Time
Civil Twilight
Nautical Twilight
Astronomical Twilight
Moon
Length of Visible Light
Length of Day
Tomorrow will be .
, % of the Moon is Illuminated

Today's Extremes

State Highs State Lows

Community

WunderPhotos

Upload Photos

1,841,999 photos uploaded!

WunderBlogs® & News

Nearby

Air Quality

  Air Quality AQ Index Pollutant
Not available.

Snow Depth

Station Depth Elevation

Earthquake Activity

City Distance Mag. Time & Date
Minimum magnitude displayed is 2.5.

Coastal Water Temperatures

Place Temperature

Stations

Nearby Weather Stations

Station Location Temp. Windchill Dew Point Humidity Wind Precip. Elev Updated Type